sensor_id;sensor_type;location;lat;lon;timestamp;P1;durP1;ratioP1;P2;durP2;ratioP2
15159;SDS011;7680;48.800;9.680;2024-01-15T00:01:41;43.03;;;22.50;;
15159;SDS011;7680;48.800;9.680;2024-01-15T00:06:45;45.00;;;22.10;;
15159;SDS011;7680;48.800;9.680;2024-01-15T00:11:50;40.93;;;22.50;;
15159;SDS011;7680;48.800;9.680;2024-01-15T00:16:53;50.67;;;24.80;;
15159;SDS011;7680;48.800;9.680;2024-01-15T00:21:57;48.40;;;24.90;;
15159;SDS011;7680;48.800;9.680;2024-01-15T00:27:01;51.83;;;26.43;;
15159;SDS011;7680;48.800;9.680;2024-01-15T00:32:05;47.30;;;23.60;;
15159;SDS011;7680;48.800;9.680;2024-01-15T00:37:08;43.93;;;23.60;;
15159;SDS011;7680;48.800;9.680;2024-01-15T00:42:13;48.67;;;27.80;;
15159;SDS011;7680;48.800;9.680;2024-01-15T00:47:17;56.27;;;29.67;;
15159;SDS011;7680;48.800;9.680;2024-01-15T00:52:21;52.10;;;28.63;;
15159;SDS011;7680;48.800;9.680;2024-01-15T00:57:25;47.63;;;25.67;;
15159;SDS011;7680;48.800;9.680;2024-01-15T01:02:28;44.37;;;24.60;;
15159;SDS011;7680;48.800;9.680;2024-01-15T01:07:32;42.03;;;23.17;;
15159;SDS011;7680;48.800;9.680;2024-01-15T01:12:36;46.27;;;24.23;;
15159;SDS011;7680;48.800;9.680;2024-01-15T01:17:39;51.80;;;25.60;;
15159;SDS011;7680;48.800;9.680;2024-01-15T01:22:43;48.43;;;24.00;;
15159;SDS011;7680;48.800;9.680;2024-01-15T01:27:47;46.43;;;23.90;;
15159;SDS011;7680;48.800;9.680;2024-01-15T01:32:50;48.23;;;23.80;;
15159;SDS011;7680;48.800;9.680;2024-01-15T01:37:54;47.87;;;25.43;;
15159;SDS011;7680;48.800;9.680;2024-01-15T01:42:58;42.90;;;22.33;;
15159;SDS011;7680;48.800;9.680;2024-01-15T01:48:01;41.17;;;22.50;;
15159;SDS011;7680;48.800;9.680;2024-01-15T01:53:06;39.83;;;22.20;;
15159;SDS011;7680;48.800;9.680;2024-01-15T01:58:12;42.67;;;22.33;;
15159;SDS011;7680;48.800;9.680;2024-01-15T02:03:15;38.27;;;21.87;;
15159;SDS011;7680;48.800;9.680;2024-01-15T02:08:19;39.10;;;20.67;;
15159;SDS011;7680;48.800;9.680;2024-01-15T02:13:23;40.73;;;21.20;;
15159;SDS011;7680;48.800;9.680;2024-01-15T02:18:27;38.63;;;21.13;;
15159;SDS011;7680;48.800;9.680;2024-01-15T02:23:31;40.03;;;21.47;;
15159;SDS011;7680;48.800;9.680;2024-01-15T02:28:34;51.53;;;25.83;;
15159;SDS011;7680;48.800;9.680;2024-01-15T02:33:38;45.10;;;22.97;;
15159;SDS011;7680;48.800;9.680;2024-01-15T02:38:44;55.77;;;27.50;;
15159;SDS011;7680;48.800;9.680;2024-01-15T02:43:47;48.70;;;24.77;;
15159;SDS011;7680;48.800;9.680;2024-01-15T02:48:50;43.47;;;24.03;;
15159;SDS011;7680;48.800;9.680;2024-01-15T02:53:55;38.93;;;22.87;;
15159;SDS011;7680;48.800;9.680;2024-01-15T02:58:58;37.60;;;22.57;;
15159;SDS011;7680;48.800;9.680;2024-01-15T03:04:01;35.73;;;19.60;;
15159;SDS011;7680;48.800;9.680;2024-01-15T03:09:06;31.70;;;19.03;;
15159;SDS011;7680;48.800;9.680;2024-01-15T03:14:10;34.97;;;21.60;;
15159;SDS011;7680;48.800;9.680;2024-01-15T03:19:13;42.03;;;23.17;;
15159;SDS011;7680;48.800;9.680;2024-01-15T03:24:17;30.40;;;17.83;;
15159;SDS011;7680;48.800;9.680;2024-01-15T03:29:21;36.27;;;19.47;;
15159;SDS011;7680;48.800;9.680;2024-01-15T03:34:24;28.70;;;16.13;;
15159;SDS011;7680;48.800;9.680;2024-01-15T03:39:28;27.10;;;15.70;;
15159;SDS011;7680;48.800;9.680;2024-01-15T03:44:32;27.93;;;17.27;;
15159;SDS011;7680;48.800;9.680;2024-01-15T03:49:35;31.83;;;17.53;;
15159;SDS011;7680;48.800;9.680;2024-01-15T03:54:40;27.80;;;17.27;;
15159;SDS011;7680;48.800;9.680;2024-01-15T03:59:43;27.43;;;16.43;;
15159;SDS011;7680;48.800;9.680;2024-01-15T04:04:48;27.40;;;16.77;;
15159;SDS011;7680;48.800;9.680;2024-01-15T04:09:53;26.77;;;17.00;;
15159;SDS011;7680;48.800;9.680;2024-01-15T04:14:56;26.07;;;15.47;;
15159;SDS011;7680;48.800;9.680;2024-01-15T04:19:59;26.73;;;17.40;;
15159;SDS011;7680;48.800;9.680;2024-01-15T04:25:04;28.83;;;17.07;;
15159;SDS011;7680;48.800;9.680;2024-01-15T04:30:09;30.90;;;17.37;;
15159;SDS011;7680;48.800;9.680;2024-01-15T04:35:13;29.20;;;16.63;;
15159;SDS011;7680;48.800;9.680;2024-01-15T04:40:18;27.30;;;15.87;;
15159;SDS011;7680;48.800;9.680;2024-01-15T04:45:21;27.87;;;15.83;;
15159;SDS011;7680;48.800;9.680;2024-01-15T04:50:29;24.23;;;13.93;;
15159;SDS011;7680;48.800;9.680;2024-01-15T04:55:34;23.40;;;14.97;;
15159;SDS011;7680;48.800;9.680;2024-01-15T05:00:37;25.87;;;16.10;;
15159;SDS011;7680;48.800;9.680;2024-01-15T05:05:40;28.57;;;16.07;;
15159;SDS011;7680;48.800;9.680;2024-01-15T05:10:45;29.60;;;15.57;;
15159;SDS011;7680;48.800;9.680;2024-01-15T05:15:48;24.13;;;14.13;;
15159;SDS011;7680;48.800;9.680;2024-01-15T05:20:51;21.43;;;13.63;;
15159;SDS011;7680;48.800;9.680;2024-01-15T05:25:56;23.90;;;14.30;;
15159;SDS011;7680;48.800;9.680;2024-01-15T05:30:59;22.57;;;13.17;;
15159;SDS011;7680;48.800;9.680;2024-01-15T05:36:03;23.10;;;14.83;;
15159;SDS011;7680;48.800;9.680;2024-01-15T05:41:08;23.10;;;14.93;;
15159;SDS011;7680;48.800;9.680;2024-01-15T05:46:12;24.87;;;17.43;;
15159;SDS011;7680;48.800;9.680;2024-01-15T05:51:16;23.83;;;15.50;;
15159;SDS011;7680;48.800;9.680;2024-01-15T05:56:21;26.37;;;15.70;;
15159;SDS011;7680;48.800;9.680;2024-01-15T06:01:25;20.93;;;14.30;;
15159;SDS011;7680;48.800;9.680;2024-01-15T06:06:28;23.33;;;14.77;;
15159;SDS011;7680;48.800;9.680;2024-01-15T06:11:33;22.80;;;15.93;;
15159;SDS011;7680;48.800;9.680;2024-01-15T06:16:36;20.77;;;13.00;;
15159;SDS011;7680;48.800;9.680;2024-01-15T06:21:39;18.87;;;12.00;;
15159;SDS011;7680;48.800;9.680;2024-01-15T06:26:44;24.13;;;14.70;;
15159;SDS011;7680;48.800;9.680;2024-01-15T06:31:49;25.03;;;15.63;;
15159;SDS011;7680;48.800;9.680;2024-01-15T06:36:52;24.23;;;14.93;;
15159;SDS011;7680;48.800;9.680;2024-01-15T06:41:57;25.70;;;15.13;;
15159;SDS011;7680;48.800;9.680;2024-01-15T06:47:00;24.33;;;15.03;;
15159;SDS011;7680;48.800;9.680;2024-01-15T06:52:04;23.83;;;14.20;;
15159;SDS011;7680;48.800;9.680;2024-01-15T06:57:09;22.27;;;14.03;;
15159;SDS011;7680;48.800;9.680;2024-01-15T07:02:13;23.03;;;14.60;;
15159;SDS011;7680;48.800;9.680;2024-01-15T07:07:16;22.87;;;14.20;;
15159;SDS011;7680;48.800;9.680;2024-01-15T07:12:20;22.33;;;13.30;;
15159;SDS011;7680;48.800;9.680;2024-01-15T07:17:24;21.73;;;13.47;;
15159;SDS011;7680;48.800;9.680;2024-01-15T07:22:27;17.17;;;12.23;;
15159;SDS011;7680;48.800;9.680;2024-01-15T07:27:32;22.20;;;12.37;;
15159;SDS011;7680;48.800;9.680;2024-01-15T07:32:35;23.13;;;13.77;;
15159;SDS011;7680;48.800;9.680;2024-01-15T07:37:38;31.27;;;18.50;;
15159;SDS011;7680;48.800;9.680;2024-01-15T07:42:43;36.77;;;20.50;;
15159;SDS011;7680;48.800;9.680;2024-01-15T07:47:46;34.33;;;20.00;;
15159;SDS011;7680;48.800;9.680;2024-01-15T07:52:50;29.77;;;18.07;;
15159;SDS011;7680;48.800;9.680;2024-01-15T07:57:55;31.77;;;17.23;;
15159;SDS011;7680;48.800;9.680;2024-01-15T08:03:15;29.43;;;16.20;;
15159;SDS011;7680;48.800;9.680;2024-01-15T08:08:19;31.03;;;18.47;;
15159;SDS011;7680;48.800;9.680;2024-01-15T08:13:26;26.50;;;17.20;;
15159;SDS011;7680;48.800;9.680;2024-01-15T08:18:30;22.13;;;14.97;;
15159;SDS011;7680;48.800;9.680;2024-01-15T08:23:34;20.60;;;14.03;;
15159;SDS011;7680;48.800;9.680;2024-01-15T08:28:38;21.70;;;14.70;;
15159;SDS011;7680;48.800;9.680;2024-01-15T08:33:41;18.77;;;13.30;;
15159;SDS011;7680;48.800;9.680;2024-01-15T08:38:45;20.47;;;12.90;;
15159;SDS011;7680;48.800;9.680;2024-01-15T08:43:49;21.83;;;13.63;;
15159;SDS011;7680;48.800;9.680;2024-01-15T08:48:54;24.67;;;15.30;;
15159;SDS011;7680;48.800;9.680;2024-01-15T08:53:57;21.63;;;15.37;;
15159;SDS011;7680;48.800;9.680;2024-01-15T08:59:02;25.33;;;16.07;;
15159;SDS011;7680;48.800;9.680;2024-01-15T09:04:05;18.57;;;12.63;;
15159;SDS011;7680;48.800;9.680;2024-01-15T09:09:08;17.57;;;11.80;;
15159;SDS011;7680;48.800;9.680;2024-01-15T09:14:13;20.43;;;12.93;;
15159;SDS011;7680;48.800;9.680;2024-01-15T09:19:19;17.00;;;11.23;;
15159;SDS011;7680;48.800;9.680;2024-01-15T09:24:22;14.43;;;10.97;;
15159;SDS011;7680;48.800;9.680;2024-01-15T09:29:30;12.17;;;9.57;;
15159;SDS011;7680;48.800;9.680;2024-01-15T09:34:33;13.73;;;9.80;;
15159;SDS011;7680;48.800;9.680;2024-01-15T09:39:37;15.37;;;10.20;;
15159;SDS011;7680;48.800;9.680;2024-01-15T09:44:41;10.77;;;9.37;;
15159;SDS011;7680;48.800;9.680;2024-01-15T09:49:45;13.00;;;9.27;;
15159;SDS011;7680;48.800;9.680;2024-01-15T09:54:48;12.67;;;8.50;;
15159;SDS011;7680;48.800;9.680;2024-01-15T09:59:53;10.97;;;8.53;;
15159;SDS011;7680;48.800;9.680;2024-01-15T10:04:59;11.00;;;8.73;;
15159;SDS011;7680;48.800;9.680;2024-01-15T10:10:04;14.33;;;9.97;;
15159;SDS011;7680;48.800;9.680;2024-01-15T10:15:10;10.50;;;8.33;;
15159;SDS011;7680;48.800;9.680;2024-01-15T10:20:14;10.40;;;7.63;;
15159;SDS011;7680;48.800;9.680;2024-01-15T10:25:17;11.03;;;8.67;;
15159;SDS011;7680;48.800;9.680;2024-01-15T10:30:27;11.20;;;9.27;;
15159;SDS011;7680;48.800;9.680;2024-01-15T10:35:31;9.30;;;6.37;;
15159;SDS011;7680;48.800;9.680;2024-01-15T10:40:36;12.67;;;8.57;;
15159;SDS011;7680;48.800;9.680;2024-01-15T10:45:42;9.40;;;6.63;;
15159;SDS011;7680;48.800;9.680;2024-01-15T10:50:46;10.13;;;5.93;;
15159;SDS011;7680;48.800;9.680;2024-01-15T10:55:49;10.20;;;6.77;;
15159;SDS011;7680;48.800;9.680;2024-01-15T11:00:55;9.70;;;6.70;;
15159;SDS011;7680;48.800;9.680;2024-01-15T11:05:59;7.70;;;6.33;;
15159;SDS011;7680;48.800;9.680;2024-01-15T11:11:03;7.07;;;6.27;;
15159;SDS011;7680;48.800;9.680;2024-01-15T11:16:08;7.63;;;6.50;;
15159;SDS011;7680;48.800;9.680;2024-01-15T11:21:22;10.93;;;7.33;;
15159;SDS011;7680;48.800;9.680;2024-01-15T11:26:28;9.67;;;5.87;;
15159;SDS011;7680;48.800;9.680;2024-01-15T11:37:03;8.50;;;6.33;;
15159;SDS011;7680;48.800;9.680;2024-01-15T11:42:06;7.70;;;6.60;;
15159;SDS011;7680;48.800;9.680;2024-01-15T11:47:11;15.77;;;11.73;;
15159;SDS011;7680;48.800;9.680;2024-01-15T11:52:17;14.80;;;11.07;;
15159;SDS011;7680;48.800;9.680;2024-01-15T11:57:25;11.37;;;10.17;;
15159;SDS011;7680;48.800;9.680;2024-01-15T12:02:47;9.70;;;8.10;;
15159;SDS011;7680;48.800;9.680;2024-01-15T12:07:52;9.73;;;8.33;;
15159;SDS011;7680;48.800;9.680;2024-01-15T12:12:58;9.53;;;7.07;;
15159;SDS011;7680;48.800;9.680;2024-01-15T12:18:04;8.57;;;7.67;;
15159;SDS011;7680;48.800;9.680;2024-01-15T12:23:08;12.00;;;9.37;;
15159;SDS011;7680;48.800;9.680;2024-01-15T12:28:12;8.50;;;6.90;;
15159;SDS011;7680;48.800;9.680;2024-01-15T12:33:17;8.80;;;6.90;;
15159;SDS011;7680;48.800;9.680;2024-01-15T12:38:21;10.37;;;7.60;;
15159;SDS011;7680;48.800;9.680;2024-01-15T12:43:24;7.57;;;6.73;;
15159;SDS011;7680;48.800;9.680;2024-01-15T12:48:29;12.27;;;8.63;;
15159;SDS011;7680;48.800;9.680;2024-01-15T12:53:32;7.67;;;6.77;;
15159;SDS011;7680;48.800;9.680;2024-01-15T12:58:36;7.80;;;6.10;;
15159;SDS011;7680;48.800;9.680;2024-01-15T13:03:40;8.00;;;5.57;;
15159;SDS011;7680;48.800;9.680;2024-01-15T13:08:44;8.37;;;6.73;;
15159;SDS011;7680;48.800;9.680;2024-01-15T13:13:47;8.20;;;6.40;;
15159;SDS011;7680;48.800;9.680;2024-01-15T13:18:52;133.93;;;59.93;;
15159;SDS011;7680;48.800;9.680;2024-01-15T13:23:55;18.33;;;12.03;;
15159;SDS011;7680;48.800;9.680;2024-01-15T13:28:59;14.07;;;10.30;;
15159;SDS011;7680;48.800;9.680;2024-01-15T13:34:03;9.13;;;7.13;;
15159;SDS011;7680;48.800;9.680;2024-01-15T13:39:08;8.33;;;7.53;;
15159;SDS011;7680;48.800;9.680;2024-01-15T13:44:11;8.93;;;7.07;;
15159;SDS011;7680;48.800;9.680;2024-01-15T13:49:16;10.40;;;7.70;;
15159;SDS011;7680;48.800;9.680;2024-01-15T13:54:19;7.70;;;6.90;;
15159;SDS011;7680;48.800;9.680;2024-01-15T13:59:28;10.53;;;8.93;;
15159;SDS011;7680;48.800;9.680;2024-01-15T14:04:35;13.20;;;9.40;;
15159;SDS011;7680;48.800;9.680;2024-01-15T14:09:38;8.87;;;7.60;;
15159;SDS011;7680;48.800;9.680;2024-01-15T14:14:41;9.33;;;8.43;;
15159;SDS011;7680;48.800;9.680;2024-01-15T14:19:46;9.47;;;8.13;;
15159;SDS011;7680;48.800;9.680;2024-01-15T14:24:49;10.27;;;8.50;;
15159;SDS011;7680;48.800;9.680;2024-01-15T14:29:52;9.20;;;7.50;;
15159;SDS011;7680;48.800;9.680;2024-01-15T14:34:57;8.37;;;6.90;;
15159;SDS011;7680;48.800;9.680;2024-01-15T14:40:00;10.73;;;9.03;;
15159;SDS011;7680;48.800;9.680;2024-01-15T14:45:04;10.13;;;8.13;;
15159;SDS011;7680;48.800;9.680;2024-01-15T14:50:15;10.03;;;9.03;;
15159;SDS011;7680;48.800;9.680;2024-01-15T14:55:18;11.87;;;9.60;;
15159;SDS011;7680;48.800;9.680;2024-01-15T15:00:24;14.63;;;11.27;;
15159;SDS011;7680;48.800;9.680;2024-01-15T15:05:29;10.17;;;9.00;;
15159;SDS011;7680;48.800;9.680;2024-01-15T15:10:33;9.30;;;8.40;;
15159;SDS011;7680;48.800;9.680;2024-01-15T15:15:36;12.13;;;10.20;;
15159;SDS011;7680;48.800;9.680;2024-01-15T15:20:41;11.50;;;8.70;;
15159;SDS011;7680;48.800;9.680;2024-01-15T15:25:44;18.90;;;15.63;;
15159;SDS011;7680;48.800;9.680;2024-01-15T15:30:47;11.87;;;10.07;;
15159;SDS011;7680;48.800;9.680;2024-01-15T15:35:52;11.40;;;9.77;;
15159;SDS011;7680;48.800;9.680;2024-01-15T15:40:55;14.27;;;11.17;;
15159;SDS011;7680;48.800;9.680;2024-01-15T15:45:58;14.37;;;12.23;;
15159;SDS011;7680;48.800;9.680;2024-01-15T15:51:03;14.10;;;12.67;;
15159;SDS011;7680;48.800;9.680;2024-01-15T15:56:07;15.23;;;13.63;;
15159;SDS011;7680;48.800;9.680;2024-01-15T16:01:11;16.33;;;14.57;;
15159;SDS011;7680;48.800;9.680;2024-01-15T16:06:16;16.17;;;13.80;;
15159;SDS011;7680;48.800;9.680;2024-01-15T16:11:19;16.27;;;14.33;;
15159;SDS011;7680;48.800;9.680;2024-01-15T16:16:22;15.93;;;14.33;;
15159;SDS011;7680;48.800;9.680;2024-01-15T16:21:47;14.23;;;12.53;;
15159;SDS011;7680;48.800;9.680;2024-01-15T16:27:10;14.03;;;12.57;;
15159;SDS011;7680;48.800;9.680;2024-01-15T16:32:14;16.37;;;13.13;;
15159;SDS011;7680;48.800;9.680;2024-01-15T16:37:18;22.00;;;17.07;;
15159;SDS011;7680;48.800;9.680;2024-01-15T16:42:21;17.77;;;14.10;;
15159;SDS011;7680;48.800;9.680;2024-01-15T16:47:25;17.17;;;14.60;;
15159;SDS011;7680;48.800;9.680;2024-01-15T16:52:30;18.90;;;16.27;;
15159;SDS011;7680;48.800;9.680;2024-01-15T16:57:33;17.53;;;15.67;;
15159;SDS011;7680;48.800;9.680;2024-01-15T17:02:37;13.43;;;12.13;;
15159;SDS011;7680;48.800;9.680;2024-01-15T17:07:42;15.83;;;12.20;;
15159;SDS011;7680;48.800;9.680;2024-01-15T17:12:45;14.33;;;11.83;;
15159;SDS011;7680;48.800;9.680;2024-01-15T17:17:48;13.43;;;11.03;;
15159;SDS011;7680;48.800;9.680;2024-01-15T17:22:53;13.57;;;11.63;;
15159;SDS011;7680;48.800;9.680;2024-01-15T17:27:57;15.60;;;12.57;;
15159;SDS011;7680;48.800;9.680;2024-01-15T17:33:02;12.30;;;10.80;;
15159;SDS011;7680;48.800;9.680;2024-01-15T17:38:08;13.53;;;12.10;;
15159;SDS011;7680;48.800;9.680;2024-01-15T17:43:11;16.40;;;13.40;;
15159;SDS011;7680;48.800;9.680;2024-01-15T17:48:14;15.53;;;13.07;;
15159;SDS011;7680;48.800;9.680;2024-01-15T17:53:19;13.40;;;11.50;;
15159;SDS011;7680;48.800;9.680;2024-01-15T17:58:22;18.33;;;14.30;;
15159;SDS011;7680;48.800;9.680;2024-01-15T18:03:25;15.13;;;12.87;;
15159;SDS011;7680;48.800;9.680;2024-01-15T18:08:29;14.47;;;12.40;;
15159;SDS011;7680;48.800;9.680;2024-01-15T18:13:33;16.43;;;13.00;;
15159;SDS011;7680;48.800;9.680;2024-01-15T18:18:36;14.23;;;11.17;;
15159;SDS011;7680;48.800;9.680;2024-01-15T18:23:40;17.53;;;13.73;;
15159;SDS011;7680;48.800;9.680;2024-01-15T18:28:44;31.03;;;20.97;;
15159;SDS011;7680;48.800;9.680;2024-01-15T18:33:47;18.93;;;16.40;;
15159;SDS011;7680;48.800;9.680;2024-01-15T18:38:52;16.60;;;14.87;;
15159;SDS011;7680;48.800;9.680;2024-01-15T18:43:55;14.03;;;12.67;;
15159;SDS011;7680;48.800;9.680;2024-01-15T18:48:58;16.30;;;14.20;;
15159;SDS011;7680;48.800;9.680;2024-01-15T18:54:03;14.87;;;12.23;;
15159;SDS011;7680;48.800;9.680;2024-01-15T18:59:06;11.63;;;10.00;;
15159;SDS011;7680;48.800;9.680;2024-01-15T19:04:10;12.20;;;10.60;;
15159;SDS011;7680;48.800;9.680;2024-01-15T19:09:15;11.37;;;10.13;;
15159;SDS011;7680;48.800;9.680;2024-01-15T19:14:18;12.37;;;11.17;;
15159;SDS011;7680;48.800;9.680;2024-01-15T19:19:21;11.93;;;9.47;;
15159;SDS011;7680;48.800;9.680;2024-01-15T19:24:26;11.57;;;9.53;;
15159;SDS011;7680;48.800;9.680;2024-01-15T19:29:29;13.20;;;10.10;;
15159;SDS011;7680;48.800;9.680;2024-01-15T19:34:32;10.27;;;9.13;;
15159;SDS011;7680;48.800;9.680;2024-01-15T19:39:40;9.30;;;8.30;;
15159;SDS011;7680;48.800;9.680;2024-01-15T19:44:43;23.83;;;15.67;;
15159;SDS011;7680;48.800;9.680;2024-01-15T19:49:46;31.10;;;19.13;;
15159;SDS011;7680;48.800;9.680;2024-01-15T19:54:51;13.27;;;9.43;;
15159;SDS011;7680;48.800;9.680;2024-01-15T19:59:54;11.83;;;10.30;;
15159;SDS011;7680;48.800;9.680;2024-01-15T20:04:57;10.80;;;9.70;;
15159;SDS011;7680;48.800;9.680;2024-01-15T20:10:02;8.47;;;7.57;;
15159;SDS011;7680;48.800;9.680;2024-01-15T20:15:06;9.00;;;8.07;;
15159;SDS011;7680;48.800;9.680;2024-01-15T20:20:10;8.30;;;7.50;;
15159;SDS011;7680;48.800;9.680;2024-01-15T20:25:15;36.13;;;21.13;;
15159;SDS011;7680;48.800;9.680;2024-01-15T20:30:18;8.63;;;7.50;;
15159;SDS011;7680;48.800;9.680;2024-01-15T20:35:23;11.93;;;9.77;;
15159;SDS011;7680;48.800;9.680;2024-01-15T20:40:27;13.23;;;10.07;;
15159;SDS011;7680;48.800;9.680;2024-01-15T20:45:34;9.47;;;8.30;;
15159;SDS011;7680;48.800;9.680;2024-01-15T20:50:37;10.10;;;9.00;;
15159;SDS011;7680;48.800;9.680;2024-01-15T20:55:42;13.33;;;10.70;;
15159;SDS011;7680;48.800;9.680;2024-01-15T21:00:45;9.83;;;8.73;;
15159;SDS011;7680;48.800;9.680;2024-01-15T21:05:48;14.70;;;13.10;;
15159;SDS011;7680;48.800;9.680;2024-01-15T21:10:53;15.90;;;14.27;;
15159;SDS011;7680;48.800;9.680;2024-01-15T21:15:56;10.90;;;10.00;;
15159;SDS011;7680;48.800;9.680;2024-01-15T21:20:59;17.50;;;12.90;;
15159;SDS011;7680;48.800;9.680;2024-01-15T21:26:04;9.57;;;7.90;;
15159;SDS011;7680;48.800;9.680;2024-01-15T21:31:07;7.73;;;7.03;;
15159;SDS011;7680;48.800;9.680;2024-01-15T21:36:11;7.97;;;6.83;;
15159;SDS011;7680;48.800;9.680;2024-01-15T21:41:17;8.53;;;6.90;;
15159;SDS011;7680;48.800;9.680;2024-01-15T21:46:20;6.73;;;6.00;;
15159;SDS011;7680;48.800;9.680;2024-01-15T21:51:26;7.10;;;6.50;;
15159;SDS011;7680;48.800;9.680;2024-01-15T21:56:30;7.03;;;6.33;;
15159;SDS011;7680;48.800;9.680;2024-01-15T22:01:33;7.47;;;6.20;;
15159;SDS011;7680;48.800;9.680;2024-01-15T22:06:37;7.77;;;7.00;;
15159;SDS011;7680;48.800;9.680;2024-01-15T22:11:42;7.30;;;6.63;;
15159;SDS011;7680;48.800;9.680;2024-01-15T22:16:46;6.83;;;6.20;;
15159;SDS011;7680;48.800;9.680;2024-01-15T22:21:49;7.30;;;6.40;;
15159;SDS011;7680;48.800;9.680;2024-01-15T22:26:53;6.97;;;6.23;;
15159;SDS011;7680;48.800;9.680;2024-01-15T22:31:56;9.53;;;6.80;;
15159;SDS011;7680;48.800;9.680;2024-01-15T22:37:00;7.77;;;6.97;;
15159;SDS011;7680;48.800;9.680;2024-01-15T22:42:05;7.00;;;6.20;;
15159;SDS011;7680;48.800;9.680;2024-01-15T22:47:08;6.73;;;6.13;;
15159;SDS011;7680;48.800;9.680;2024-01-15T22:52:12;8.33;;;6.70;;
15159;SDS011;7680;48.800;9.680;2024-01-15T22:57:17;7.73;;;6.90;;
15159;SDS011;7680;48.800;9.680;2024-01-15T23:02:20;8.87;;;6.80;;
15159;SDS011;7680;48.800;9.680;2024-01-15T23:07:24;8.13;;;6.60;;
15159;SDS011;7680;48.800;9.680;2024-01-15T23:12:32;7.43;;;6.70;;
15159;SDS011;7680;48.800;9.680;2024-01-15T23:17:35;8.23;;;7.00;;
15159;SDS011;7680;48.800;9.680;2024-01-15T23:22:39;10.70;;;7.80;;
15159;SDS011;7680;48.800;9.680;2024-01-15T23:27:43;7.67;;;6.97;;
15159;SDS011;7680;48.800;9.680;2024-01-15T23:32:47;8.30;;;6.47;;
15159;SDS011;7680;48.800;9.680;2024-01-15T23:37:50;7.70;;;6.90;;
15159;SDS011;7680;48.800;9.680;2024-01-15T23:42:55;7.80;;;7.00;;
15159;SDS011;7680;48.800;9.680;2024-01-15T23:47:58;6.77;;;6.03;;
15159;SDS011;7680;48.800;9.680;2024-01-15T23:53:01;7.80;;;7.00;;
15159;SDS011;7680;48.800;9.680;2024-01-15T23:58:06;8.47;;;6.73;;
